Latest Coastal Weather Observations for Cape Ferguson

IDQ60701

Issued at 1:12 pm EST Tuesday 3 May 2016 (issued every 10 minutes, with the page automatically refreshed every 10 minutes)

About coastal observations | Map of coastal stations | Coastal observations for QLD | Marine services | Other Formats
Station Details ID: 032182 Name: CAPE FERGUSON NTC AWS Lat: -19.28 Lon: 147.06 Height: 0.0 m
Data from the previous 72 hours. | See also: Recent months for locations in Queensland
Date/Time
EST
Temp

°C
Wind Pressure Rain
since 9am
mm
Weather Cloud Vis
km
Sea
Height
m
Swell
Dir
 
Speed
knots
Gust
knots
hPa Trend Height
m
Period
s
Dir
03/01:00pm 27.4 NNE 7 13 1012.3 - - - - - - - - -
03/12:30pm 27.3 ENE 5 9 1012.8 - - - - - - - - -
03/12:00pm 26.6 ENE 7 9 1013.2 - - - - - - - - -
03/11:30am 26.5 ENE 5 8 1013.8 - - - - - - - - -
03/11:00am 26.4 E 6 7 1014.0 - - - - - - - - -
03/10:30am 26.2 E 6 7 1014.4 - - - - - - - - -
03/10:00am 26.2 E 4 5 1014.8 - - - - - - - - -
03/09:30am 26.1 ESE 5 6 1014.8 - - - - - - - - -
03/09:00am 25.9 SE 3 4 1014.7 - - - - - - - - -
03/08:30am 26.1 CALM 0 1 1014.5 - - - - - - - - -
03/08:00am 25.3 NW 1 3 1014.3 - - - - - - - - -
03/07:30am 24.8 WNW 2 2 1014.2 - - - - - - - - -
03/07:00am 24.7 NW 2 3 1014.2 - - - - - - - - -
03/06:30am 24.4 WNW 2 3 1013.6 - - - - - - - - -
03/06:00am 24.4 NW 2 2 1013.3 - - - - - - - - -
03/05:30am 24.6 WNW 2 3 1013.1 - - - - - - - - -
03/05:00am 24.5 WNW 2 3 1012.9 - - - - - - - - -
03/04:30am 24.8 CALM 0 1 1012.7 - - - - - - - - -
03/04:00am 25.2 CALM 0 2 1012.7 - - - - - - - - -
03/03:30am 24.5 W 3 5 1012.9 - - - - - - - - -
03/03:00am 25.1 WNW 2 3 1013.1 - - - - - - - - -
03/02:30am 24.9 WNW 2 4 1013.1 - - - - - - - - -
03/02:00am 26.1 NE 2 5 1013.2 - - - - - - - - -
03/01:30am 26.2 NE 2 6 1013.4 - - - - - - - - -
03/01:00am 26.3 NE 1 5 1013.8 - - - - - - - - -
03/12:30am 26.2 NE 2 5 1014.0 - - - - - - - - -
03/12:00am 26.4 NE 1 4 1014.4 - - - - - - - - -
 
Date/Time
EST
Temp

°C
Wind Pressure Rain
since 9am
mm
Weather Cloud Vis
km
Sea
Height
m
Swell
Dir
 
Speed
knots
Gust
knots
hPa Trend Height
m
Period
s
Dir
02/11:30pm 26.7 ENE 4 7 1014.8 - - - - - - - - -
02/11:00pm 26.7 ENE 5 10 1014.8 - - - - - - - - -
02/10:30pm 26.7 ENE 3 5 1014.9 - - - - - - - - -
02/10:00pm 26.8 ENE 2 6 1015.0 - - - - - - - - -
02/09:30pm 26.8 ENE 4 8 1014.9 - - - - - - - - -
02/09:00pm 26.9 ENE 4 7 1015.1 - - - - - - - - -
02/08:30pm 27.0 ENE 3 5 1014.9 - - - - - - - - -
02/08:00pm 26.8 ENE 2 6 1014.8 - - - - - - - - -
02/07:30pm 26.9 ENE 5 8 1014.2 - - - - - - - - -
02/07:00pm 26.9 ENE 5 8 1013.8 - - - - - - - - -
02/06:30pm 26.9 ENE 4 10 1013.3 - - - - - - - - -
02/06:00pm 27.0 ENE 4 8 1013.2 - - - - - - - - -
02/05:30pm 26.9 ENE 4 8 1012.9 - - - - - - - - -
02/05:00pm 27.1 NE 5 9 1012.7 - - - - - - - - -
02/04:30pm 27.0 ENE 6 9 1012.5 - - - - - - - - -
02/04:00pm 27.2 ENE 5 9 1012.4 - - - - - - - - -
02/03:30pm 27.2 NE 5 10 1012.1 - - - - - - - - -
02/03:00pm 27.3 NE 4 9 1012.1 - - - - - - - - -
02/02:30pm 27.2 NE 4 7 1012.2 - - - - - - - - -
02/02:00pm 27.2 ENE 6 9 1012.6 - - - - - - - - -
02/01:30pm 26.8 ENE 6 11 1012.9 - - - - - - - - -
02/01:00pm 26.7 ENE 7 9 1013.3 - - - - - - - - -
02/12:30pm 26.8 ENE 6 9 1013.8 - - - - - - - - -
02/12:00pm 26.5 ENE 6 8 1014.2 - - - - - - - - -
02/11:30am 26.5 E 5 6 1014.6 - - - - - - - - -
02/11:00am 26.5 E 4 5 1014.9 - - - - - - - - -
02/10:30am 26.5 E 4 5 1015.2 - - - - - - - - -
02/10:00am 26.3 ESE 5 7 1015.6 - - - - - - - - -
02/09:30am 26.3 ESE 4 6 1015.7 - - - - - - - - -
02/09:00am 26.0 SE 5 6 1015.7 - - - - - - - - -
02/08:30am 25.9 S 4 5 1015.5 - - - - - - - - -
02/08:00am 25.6 SW 2 4 1015.1 - - - - - - - - -
02/07:30am 25.3 W 2 3 1014.8 - - - - - - - - -
02/07:00am 25.3 WNW 1 2 1014.7 - - - - - - - - -
02/06:30am 25.1 NW 1 2 1014.4 - - - - - - - - -
02/06:00am 25.0 NW 3 4 1014.0 - - - - - - - - -
02/05:30am 26.2 ENE 3 4 1013.9 - - - - - - - - -
02/05:00am 26.3 ENE 5 6 1013.6 - - - - - - - - -
02/04:30am 26.2 ENE 4 5 1013.5 - - - - - - - - -
02/04:00am 26.2 E 5 6 1013.5 - - - - - - - - -
02/03:30am 26.2 E 6 7 1013.4 - - - - - - - - -
02/03:00am 26.3 E 6 7 1013.5 - - - - - - - - -
02/02:30am 26.3 E 6 7 1013.7 - - - - - - - - -
02/02:00am 26.4 ENE 5 7 1013.9 - - - - - - - - -
02/01:30am 26.4 ENE 6 8 1014.1 - - - - - - - - -
02/01:00am 26.4 E 5 6 1014.5 - - - - - - - - -
02/12:30am 26.4 E 6 7 1015.0 - - - - - - - - -
02/12:00am 26.4 E 6 8 1015.2 - - - - - - - - -
 
Date/Time
EST
Temp

°C
Wind Pressure Rain
since 9am
mm
Weather Cloud Vis
km
Sea
Height
m
Swell
Dir
 
Speed
knots
Gust
knots
hPa Trend Height
m
Period
s
Dir
01/11:30pm 26.5 ENE 7 8 1015.4 - - - - - - - - -
01/11:00pm 26.6 ENE 7 8 1015.6 - - - - - - - - -
01/10:30pm 26.6 ENE 6 7 1015.8 - - - - - - - - -
01/10:00pm 26.6 ENE 7 8 1016.0 - - - - - - - - -
01/09:30pm 26.6 ENE 6 9 1016.0 - - - - - - - - -
01/09:00pm 26.7 ENE 6 8 1016.1 - - - - - - - - -
01/08:30pm 26.7 ENE 6 8 1016.0 - - - - - - - - -
01/08:00pm 26.7 ENE 6 8 1015.7 - - - - - - - - -
01/07:30pm 26.7 ENE 6 8 1015.3 - - - - - - - - -
01/07:00pm 26.6 ENE 5 6 1015.0 - - - - - - - - -
01/06:30pm 26.5 ENE 5 7 1014.6 - - - - - - - - -
01/06:00pm 26.5 ENE 4 6 1014.3 - - - - - - - - -
01/05:30pm 26.4 ENE 5 6 1014.2 - - - - - - - - -
01/05:00pm 26.4 ENE 6 7 1014.0 - - - - - - - - -
01/04:30pm 26.5 ENE 5 7 1013.7 - - - - - - - - -
01/04:00pm 26.4 ENE 6 7 1013.7 - - - - - - - - -
01/03:30pm 26.5 ENE 8 9 1013.7 - - - - - - - - -
01/03:00pm 26.5 ENE 7 8 1013.6 - - - - - - - - -
01/02:30pm 26.6 ENE 7 9 1013.8 - - - - - - - - -
01/02:00pm 26.4 ENE 7 8 1014.0 - - - - - - - - -
01/01:30pm 26.4 ENE 8 9 1014.2 - - - - - - - - -
01/01:00pm 26.3 E 6 8 1014.6 - - - - - - - - -
01/12:30pm 26.4 E 6 8 1015.1 - - - - - - - - -
01/12:00pm 26.2 ESE 6 7 1015.5 - - - - - - - - -
01/11:30am 26.2 ESE 3 4 1015.9 - - - - - - - - -
01/11:00am 26.0 SE 4 5 1016.4 - - - - - - - - -
01/10:30am 26.0 SE 5 6 1016.8 - - - - - - - - -
01/10:00am 25.9 SE 4 6 1017.2 - - - - - - - - -
01/09:30am 25.5 SE 5 6 1017.3 - - - - - - - - -
01/09:00am 25.4 SE 5 7 1017.3 - - - - - - - - -
01/08:30am 25.4 SSE 5 7 1017.4 - - - - - - - - -
01/08:00am 25.2 SSE 6 8 1017.2 - - - - - - - - -
01/07:30am 25.0 S 4 6 1016.8 - - - - - - - - -
01/07:00am 24.9 S 7 9 1016.5 - - - - - - - - -
01/06:30am 24.9 SSE 8 11 1016.4 - - - - - - - - -
01/06:00am 24.8 SSE 8 10 1016.0 - - - - - - - - -
01/05:30am 24.8 SSE 8 10 1015.7 - - - - - - - - -
01/05:00am 24.9 SSE 8 9 1015.5 - - - - - - - - -
01/04:30am 24.8 SSE 8 9 1015.3 - - - - - - - - -
01/04:00am 25.0 SE 9 11 1015.2 - - - - - - - - -
01/03:30am 25.1 SE 9 11 1015.3 - - - - - - - - -
01/03:00am 25.2 SE 10 13 1015.4 - - - - - - - - -
01/02:30am 25.4 SSE 9 10 1015.4 - - - - - - - - -
01/02:00am 25.4 SSE 7 9 1015.6 - - - - - - - - -
01/01:30am 25.7 SSE 8 9 1015.7 - - - - - - - - -
01/01:00am 25.7 SE 7 8 1016.1 - - - - - - - - -
01/12:30am 25.8 SSE 6 9 1016.1 - - - - - - - - -
01/12:00am 26.0 SSE 5 7 1016.3 - - - - - - - - -
 
Date/Time
EST
Temp

°C
Wind Pressure Rain
since 9am
mm
Weather Cloud Vis
km
Sea
Height
m
Swell
Dir
 
Speed
knots
Gust
knots
hPa Trend Height
m
Period
s
Dir
30/11:30pm 26.4 ESE 10 12 1016.5 - - - - - - - - -
30/11:00pm 26.4 ESE 9 11 1016.5 - - - - - - - - -
30/10:30pm 26.5 ESE 9 11 1016.4 - - - - - - - - -
30/10:00pm 26.4 ESE 9 12 1016.4 - - - - - - - - -
30/09:30pm 26.5 E 9 10 1016.4 - - - - - - - - -
30/09:00pm 26.6 E 11 13 1016.2 - - - - - - - - -
30/08:30pm 26.5 E 10 11 1016.1 - - - - - - - - -
30/08:00pm 26.5 E 10 12 1015.9 - - - - - - - - -
30/07:30pm 26.6 E 10 12 1015.7 - - - - - - - - -
30/07:00pm 26.6 E 10 11 1015.4 - - - - - - - - -
30/06:30pm 26.5 E 11 12 1015.2 - - - - - - - - -
30/06:00pm 26.5 E 10 12 1015.0 - - - - - - - - -
30/05:30pm 26.5 E 11 13 1014.9 - - - - - - - - -
30/05:00pm 26.4 E 12 14 1014.7 - - - - - - - - -
30/04:30pm 26.4 E 11 13 1014.4 - - - - - - - - -
30/04:00pm 26.5 E 11 14 1014.3 - - - - - - - - -
30/03:30pm 26.4 E 11 13 1014.3 - - - - - - - - -
30/03:00pm 26.3 E 12 14 1014.3 - - - - - - - - -
30/02:30pm 26.3 E 13 15 1014.2 - - - - - - - - -
30/02:00pm 26.2 E 13 15 1014.4 - - - - - - - - -
30/01:30pm 26.2 E 12 15 1014.8 - - - - - - - - -

Other Formats:

Comma delimited format used in spreadsheet applications
http://www.bom.gov.au/fwo/IDQ60701/IDQ60701.94297.axf

JavaScript Object Notation format (JSON) in row-major order
http://www.bom.gov.au/fwo/IDQ60701/IDQ60701.94297.json